www.srh.weather.gov   
NOAA logo - Click to go to the NOAA homepage   NWS logo
Other Surface Observations
Enter Your "City, ST" or zip code   
Current Version              Previous Version:    01  02  03  04  05  06  07  08  09  10  11  12  13  14  15  16  17  18  19  20  21  22  23  24  25  26  27  28  29  30  
   31  32  33  34  35  36  37  38  39  40  41  42  43  44  45  46  47  48  49  50  51  52  53  54  55  56  57  58  59  60  
[Printable]
611
SXUS55 KTFX 230752
OSOTFX

AREA AWOS OBSERVATIONS
NATIONAL WEATHER SERVICE GREAT FALLS MT
0150 AM MDT Wed Apr 23 2014

METAR K1S3 230745Z AUTO 06004KT 10SM 13/05 A2930
METAR K38S 230745Z AUTO 31010G14KT 10SM 02/M03 A2976
METAR K3U3 230745Z AUTO 27014G18KT 6SM 00/M03 A2973
METAR K6S0 230745Z AUTO 22023G31KT 10SM 05/01 A2952
METAR K6S5 230745Z AUTO 13007KT 10SM 04/M04 A2980
METAR K79S 230745Z AUTO 23008KT 07/06 A2956
METAR K88M 230745Z AUTO 18007KT 10SM 06/M02 A2971
METAR KEKS 230745Z AUTO 08003KT 10SM 01/00 A2970
METAR KPO1 230745Z AUTO 08016G22KT 10SM 13/00 A2944
METAR KPWD 230745Z AUTO 11021G29KT 10SM 11/00 A2953
METAR KS59 230745Z AUTO 29007KT 10SM 07/M06 A2975
METAR KS71 230745Z AUTO 25011KT 2 1/2SM 08/08 A2947



National Weather Service
Disclaimer
Last Modified: August 31, 2005
Privacy Policy